Time;durP1;ratioP1;P1;durP2;ratioP2;P2;SDS_P1;SDS_P2;PMS_P1;PMS_P2;Temp;Humidity;BMP_temperature;BMP_pressure;BME280_temperature;BME280_humidity;BME280_pressure;Samples;Min_cycle;Max_cycle;Signal;HPM_P1;HPM_P2
2023/05/15 00:00:29;;;;;;;3.63;3.43;;;;;;;14.75;48.39;101064.97;5029551;28;97268;-81
2023/05/15 00:02:55;;;;;;;3.70;3.37;;;;;;;14.78;48.59;101072.25;5028447;28;96914;-82
2023/05/15 00:05:21;;;;;;;2.90;2.77;;;;;;;14.78;48.57;101063.19;5028957;28;96642;-82
2023/05/15 00:07:46;;;;;;;3.37;2.90;;;;;;;14.75;48.39;101064.97;5027251;28;116780;-82
2023/05/15 00:10:12;;;;;;;3.47;2.93;;;;;;;14.70;48.64;101068.50;5030344;27;96929;-82
2023/05/15 00:12:37;;;;;;;4.20;3.40;;;;;;;14.69;48.58;101055.94;5028330;28;97361;-81
2023/05/15 00:15:03;;;;;;;9.10;3.17;;;;;;;14.67;48.68;101064.00;5027925;27;100930;-83
2023/05/15 00:17:28;;;;;;;3.50;3.30;;;;;;;14.65;48.84;101063.75;5029949;27;99233;-82
2023/05/15 00:19:56;;;;;;;3.13;2.93;;;;;;;14.62;48.63;101061.22;5026981;27;96997;-82
2023/05/15 00:22:22;;;;;;;3.53;2.97;;;;;;;14.60;48.81;101050.69;5027800;27;99248;-82
2023/05/15 00:24:47;;;;;;;5.20;3.47;;;;;;;14.56;48.74;101061.28;5026900;28;99172;-83
2023/05/15 00:27:12;;;;;;;4.07;3.77;;;;;;;14.52;48.89;101060.03;5030336;28;105926;-81
2023/05/15 00:29:38;;;;;;;3.77;3.40;;;;;;;14.46;48.79;101056.53;5026472;27;97253;-81
2023/05/15 00:32:03;;;;;;;3.50;3.20;;;;;;;14.44;48.74;101056.28;5031600;27;96986;-82
2023/05/15 00:34:28;;;;;;;3.17;2.80;;;;;;;14.39;48.79;101051.53;5030238;28;98079;-81
2023/05/15 00:36:54;;;;;;;3.30;3.10;;;;;;;14.35;48.86;101059.34;5043396;27;100399;-81
2023/05/15 00:39:19;;;;;;;3.30;3.10;;;;;;;14.33;48.94;101057.06;5022626;28;97596;-82
2023/05/15 00:41:46;;;;;;;4.43;3.33;;;;;;;14.24;48.69;101047.00;5027052;28;97218;-81
2023/05/15 00:44:12;;;;;;;3.67;3.37;;;;;;;14.21;48.93;101039.72;5029720;28;99826;-82
2023/05/15 00:46:38;;;;;;;4.13;3.50;;;;;;;14.15;49.04;101038.97;5027747;28;100907;-82
2023/05/15 00:49:05;;;;;;;4.20;3.43;;;;;;;14.13;49.00;101024.16;5027306;28;96726;-83
2023/05/15 00:51:31;;;;;;;5.17;3.87;;;;;;;14.10;48.79;101022.41;5039139;27;96741;-82
2023/05/15 00:53:57;;;;;;;4.10;3.80;;;;;;;14.03;49.18;101031.97;5050009;27;99541;-81
2023/05/15 00:56:24;;;;;;;4.40;4.10;;;;;;;14.01;49.20;101028.19;5051660;27;99176;-83
2023/05/15 00:58:50;;;;;;;4.07;3.77;;;;;;;13.97;49.38;101027.72;5057774;27;96273;-82
2023/05/15 01:01:16;;;;;;;4.30;4.00;;;;;;;13.92;49.62;101032.00;5056926;28;97246;-82
2023/05/15 01:03:43;;;;;;;3.80;3.53;;;;;;;13.90;49.34;101031.75;5056053;28;96545;-80
2023/05/15 01:06:08;;;;;;;6.60;3.17;;;;;;;13.89;49.45;101024.69;5033752;28;99054;-83
2023/05/15 01:08:45;;;;;;;3.90;3.60;;;;;;;13.83;50.17;101023.19;5032842;28;96811;-82
2023/05/15 01:11:13;;;;;;;4.40;3.93;;;;;;;13.76;49.62;101032.75;5030009;28;97042;-82
2023/05/15 01:13:38;;;;;;;3.43;3.13;;;;;;;13.72;49.29;101010.16;5038780;27;96956;-82
2023/05/15 01:16:05;;;;;;;6.47;4.10;;;;;;;13.64;49.58;101003.63;5035693;27;97433;-83
2023/05/15 01:18:31;;;;;;;4.17;3.73;;;;;;;13.62;49.60;101019.97;5034747;28;96880;-82
2023/05/15 01:21:02;;;;;;;3.47;3.27;;;;;;;13.63;49.66;101010.41;5033931;28;97222;-82
2023/05/15 01:24:02;;;;;;;4.27;3.97;;;;;;;13.62;50.30;101016.44;5034690;28;100668;-82
2023/05/15 01:26:34;;;;;;;3.70;3.50;;;;;;;13.56;49.49;101012.94;5027052;27;100630;-82
2023/05/15 01:29:26;;;;;;;3.80;3.50;;;;;;;13.43;50.73;101003.13;5028029;28;97295;-82
2023/05/15 01:32:05;;;;;;;3.63;3.30;;;;;;;13.42;50.49;101009.19;5029702;28;97326;-82
2023/05/15 01:35:06;;;;;;;3.43;3.17;;;;;;;13.38;51.53;101008.69;5042146;27;100974;-82
2023/05/15 01:37:35;;;;;;;5.60;3.50;;;;;;;13.37;50.10;101007.91;4986477;28;99001;-82
2023/05/15 01:40:04;;;;;;;4.50;3.40;;;;;;;13.38;50.27;101014.97;5011271;28;97171;-81
2023/05/15 01:42:33;;;;;;;4.07;3.60;;;;;;;13.39;50.07;101010.94;5021642;27;96899;-82
2023/05/15 01:45:03;;;;;;;4.20;3.90;;;;;;;13.37;50.24;101007.16;5019552;28;100479;-82
2023/05/15 01:47:42;;;;;;;4.30;3.90;;;;;;;13.31;51.07;101007.16;5027724;28;97248;-81
2023/05/15 01:50:12;;;;;;;4.13;3.70;;;;;;;13.30;50.42;101008.41;5042378;27;97143;-84
2023/05/15 01:52:42;;;;;;;4.00;3.70;;;;;;;13.31;50.31;101004.41;5026841;27;97493;-83
2023/05/15 01:55:08;;;;;;;3.40;3.10;;;;;;;13.28;50.10;100999.88;5026233;28;99214;-82
2023/05/15 01:57:34;;;;;;;4.40;3.87;;;;;;;13.24;50.38;101006.91;5027250;28;99081;-82
2023/05/15 02:00:01;;;;;;;4.20;3.90;;;;;;;13.23;50.31;100992.34;5026203;28;97090;-82
2023/05/15 02:02:28;;;;;;;4.37;3.97;;;;;;;13.25;50.28;100995.38;5026578;28;97325;-82
2023/05/15 02:04:54;;;;;;;4.00;3.70;;;;;;;13.22;50.42;101004.66;5024445;28;100493;-82
2023/05/15 02:07:20;;;;;;;4.17;3.87;;;;;;;13.14;50.34;100986.31;5027084;28;98333;-82
2023/05/15 02:09:47;;;;;;;4.00;3.70;;;;;;;13.19;50.40;101002.88;5030294;27;97757;-83
2023/05/15 02:12:12;;;;;;;5.27;4.00;;;;;;;13.15;50.25;100996.84;5024907;28;97648;-82
2023/05/15 02:14:40;;;;;;;4.07;3.80;;;;;;;13.13;50.45;100988.31;5024639;28;100479;-82
2023/05/15 02:17:05;;;;;;;4.33;4.03;;;;;;;13.07;50.59;101004.16;5021893;28;98842;-83
2023/05/15 02:19:31;;;;;;;4.73;3.80;;;;;;;13.06;50.54;100982.56;5026708;27;96793;-82
2023/05/15 02:21:56;;;;;;;4.23;3.57;;;;;;;13.05;50.75;100981.78;5025856;27;97635;-81
2023/05/15 02:24:21;;;;;;;3.77;3.57;;;;;;;13.00;50.54;100976.97;5024155;28;98967;-81
2023/05/15 02:27:01;;;;;;;4.77;4.37;;;;;;;12.97;51.44;100983.53;5025518;28;111402;-82
2023/05/15 02:29:40;;;;;;;4.23;3.90;;;;;;;12.98;51.00;100973.22;5040098;27;97061;-81
2023/05/15 02:32:12;;;;;;;3.77;3.43;;;;;;;12.92;51.02;100973.22;5026306;28;97926;-83
2023/05/15 02:34:46;;;;;;;3.57;3.33;;;;;;;12.90;50.65;100969.44;5024708;28;100398;-82
2023/05/15 02:37:17;;;;;;;4.23;3.83;;;;;;;12.88;50.68;100967.19;5041264;27;99444;-82
2023/05/15 02:39:44;;;;;;;3.83;3.63;;;;;;;12.83;50.75;100973.44;5026225;27;97058;-82
2023/05/15 02:42:12;;;;;;;3.70;3.50;;;;;;;12.82;50.87;100958.13;5026543;28;97047;-82
2023/05/15 02:44:39;;;;;;;4.10;3.80;;;;;;;12.83;51.00;100965.16;5025640;27;98395;-82
2023/05/15 02:47:06;;;;;;;3.83;3.53;;;;;;;12.79;51.12;100979.22;5039012;27;100249;-82
2023/05/15 02:49:32;;;;;;;4.27;3.97;;;;;;;12.80;51.19;100963.41;5025717;28;96605;-82
2023/05/15 02:51:57;;;;;;;4.23;3.83;;;;;;;12.77;51.31;100997.53;5025102;28;97164;-81
2023/05/15 02:54:22;;;;;;;3.77;3.47;;;;;;;12.78;51.07;100988.00;5025378;28;107263;-83
2023/05/15 02:56:48;;;;;;;4.40;3.97;;;;;;;12.81;51.47;100962.16;5023584;28;100140;-82
2023/05/15 02:59:18;;;;;;;4.23;3.93;;;;;;;12.80;51.24;100977.97;5023593;28;97410;-82
2023/05/15 03:01:43;;;;;;;4.87;4.50;;;;;;;12.79;51.41;100957.13;5026150;28;97252;-82
2023/05/15 03:04:09;;;;;;;4.40;3.87;;;;;;;12.77;51.62;100962.41;5023523;28;99175;-82
2023/05/15 03:06:34;;;;;;;4.10;3.80;;;;;;;12.76;51.51;100955.38;5024124;28;99032;-81
2023/05/15 03:09:00;;;;;;;3.97;3.57;;;;;;;12.72;51.59;100965.16;5025758;27;97043;-82
2023/05/15 03:11:25;;;;;;;4.40;4.00;;;;;;;12.77;51.65;100959.66;5024964;28;97722;-82
2023/05/15 03:13:50;;;;;;;4.23;3.83;;;;;;;12.75;51.79;100964.16;5023990;28;100711;-82
2023/05/15 03:16:16;;;;;;;5.17;4.70;;;;;;;12.75;51.71;100945.56;5025100;28;98001;-82
2023/05/15 03:18:41;;;;;;;4.40;4.10;;;;;;;12.74;51.59;100952.34;5024148;28;97677;-81
2023/05/15 03:21:06;;;;;;;4.53;4.13;;;;;;;12.73;51.73;100950.84;5025585;27;96768;-83
2023/05/15 03:23:32;;;;;;;5.50;3.83;;;;;;;12.74;51.57;100941.31;5025385;28;97568;-82
2023/05/15 03:25:57;;;;;;;4.47;4.10;;;;;;;12.72;51.58;100959.63;5024795;27;97113;-82
2023/05/15 03:28:23;;;;;;;4.37;4.07;;;;;;;12.67;51.43;100938.28;5025720;27;96688;-83
2023/05/15 03:30:48;;;;;;;4.17;3.70;;;;;;;12.67;51.71;100993.47;5024054;27;97363;-82
2023/05/15 03:33:13;;;;;;;6.30;3.80;;;;;;;12.64;51.55;100944.81;5027712;27;100646;-82
2023/05/15 03:35:39;;;;;;;3.73;3.43;;;;;;;12.60;51.80;100958.09;5022714;27;97615;-82
2023/05/15 03:38:04;;;;;;;4.53;4.10;;;;;;;12.59;51.97;100951.06;5020551;27;97561;-82
2023/05/15 03:40:29;;;;;;;4.80;3.83;;;;;;;12.64;51.77;100953.09;5024077;28;97532;-80
2023/05/15 03:42:55;;;;;;;3.93;3.63;;;;;;;12.63;51.70;100968.13;5024557;28;97143;-81
2023/05/15 03:45:20;;;;;;;4.83;4.20;;;;;;;12.63;51.97;100948.81;5023188;27;104600;-81
2023/05/15 03:47:47;;;;;;;4.30;3.90;;;;;;;12.66;52.00;100950.59;5041638;27;98059;-81
2023/05/15 03:50:12;;;;;;;4.47;4.17;;;;;;;12.67;51.98;100943.78;5024706;28;97309;-82
2023/05/15 03:52:37;;;;;;;5.10;4.50;;;;;;;12.65;52.00;100949.06;5014127;28;98974;-82
2023/05/15 03:55:04;;;;;;;4.50;4.10;;;;;;;12.65;52.11;100926.97;5013206;28;99982;-81
2023/05/15 03:57:30;;;;;;;4.83;4.47;;;;;;;12.69;52.07;100933.75;5017504;27;97599;-82
2023/05/15 03:59:56;;;;;;;4.50;4.10;;;;;;;12.79;52.17;100939.81;5023748;27;99573;-81
2023/05/15 04:02:21;;;;;;;3.87;3.67;;;;;;;12.83;52.30;100945.84;5023049;28;100112;-82
2023/05/15 04:04:47;;;;;;;4.40;4.10;;;;;;;12.90;52.23;100925.25;5028503;28;97776;-82
2023/05/15 04:07:12;;;;;;;3.80;3.60;;;;;;;12.95;52.28;100941.84;5028105;27;97247;-81
2023/05/15 04:09:38;;;;;;;4.30;3.90;;;;;;;13.01;52.42;100937.06;5029168;28;96942;-81
2023/05/15 04:12:04;;;;;;;4.13;3.90;;;;;;;13.03;52.35;100940.09;5024266;27;98047;-82
2023/05/15 04:14:29;;;;;;;3.63;3.33;;;;;;;13.04;52.22;100957.41;5025859;27;100442;-81
2023/05/15 04:16:54;;;;;;;4.07;3.77;;;;;;;13.01;52.21;100937.06;5028231;27;97248;-82
2023/05/15 04:19:20;;;;;;;5.47;4.40;;;;;;;13.03;52.07;100951.13;5027233;28;97807;-81
2023/05/15 04:21:45;;;;;;;5.07;4.20;;;;;;;12.99;52.24;100950.63;5027555;27;98163;-81
2023/05/15 04:24:11;;;;;;;4.47;4.07;;;;;;;13.01;52.37;100948.13;5029736;28;102933;-81
2023/05/15 04:26:36;;;;;;;5.00;4.60;;;;;;;13.04;52.49;100946.38;5029553;27;97500;-81
2023/05/15 04:29:02;;;;;;;4.20;3.90;;;;;;;13.11;52.41;100935.59;5027708;27;97179;-81
2023/05/15 04:31:27;;;;;;;6.10;4.20;;;;;;;13.15;52.23;100933.31;5027019;28;97727;-81
2023/05/15 04:33:52;;;;;;;4.10;3.80;;;;;;;13.19;52.35;100933.81;5028136;28;98547;-80
2023/05/15 04:36:18;;;;;;;5.50;5.00;;;;;;;13.23;52.42;100947.41;5026608;28;97323;-81
2023/05/15 04:38:43;;;;;;;5.20;4.70;;;;;;;13.29;52.64;100937.09;5026659;27;97311;-81
2023/05/15 04:41:08;;;;;;;5.40;4.90;;;;;;;13.32;52.57;100939.56;5028131;27;97458;-82
2023/05/15 04:43:34;;;;;;;4.90;4.50;;;;;;;13.35;52.56;100937.81;5029297;27;100531;-81
2023/05/15 04:45:59;;;;;;;4.33;4.07;;;;;;;13.40;52.57;100929.53;5028518;27;96879;-81
2023/05/15 04:48:25;;;;;;;5.03;4.63;;;;;;;13.46;52.55;100941.34;5025214;28;97853;-81
2023/05/15 04:50:50;;;;;;;5.57;4.43;;;;;;;13.52;52.53;100946.84;5027483;27;97443;-81
2023/05/15 04:53:16;;;;;;;4.90;4.43;;;;;;;13.58;52.39;100930.25;5025232;27;98011;-81
2023/05/15 04:55:41;;;;;;;4.67;4.37;;;;;;;13.62;52.58;100952.88;5025870;28;96911;-80
2023/05/15 04:58:06;;;;;;;4.97;4.57;;;;;;;13.63;52.54;100941.28;5025777;28;98453;-82
2023/05/15 05:00:32;;;;;;;4.23;3.93;;;;;;;13.68;52.62;100950.84;5026328;27;97271;-80
2023/05/15 05:02:57;;;;;;;3.93;3.63;;;;;;;13.72;52.67;100943.03;5026152;28;100838;-81
2023/05/15 05:05:22;;;;;;;6.83;4.17;;;;;;;13.79;52.69;100953.56;5025877;27;97153;-81
2023/05/15 05:07:50;;;;;;;4.50;4.10;;;;;;;13.89;52.53;100952.06;5027216;27;97176;-81
2023/05/15 05:10:15;;;;;;;4.67;4.33;;;;;;;13.94;52.48;100959.56;5026113;28;99549;-81
2023/05/15 05:12:41;;;;;;;5.17;4.80;;;;;;;13.98;52.75;100943.44;5026761;28;100271;-82
2023/05/15 05:15:07;;;;;;;4.57;4.27;;;;;;;14.01;52.68;100939.69;5028261;27;96685;-82
2023/05/15 05:17:32;;;;;;;4.20;3.90;;;;;;;14.11;52.79;100958.25;5028111;28;97450;-81
2023/05/15 05:19:57;;;;;;;4.73;4.20;;;;;;;14.15;52.84;100944.88;5026855;27;97616;-81
2023/05/15 05:22:23;;;;;;;4.60;4.30;;;;;;;14.25;52.85;100961.97;5026472;28;108404;-80
2023/05/15 05:24:48;;;;;;;5.10;4.70;;;;;;;14.30;52.95;100947.38;5027743;27;97496;-82
2023/05/15 05:27:13;;;;;;;4.17;3.97;;;;;;;14.31;52.98;100937.81;5025999;28;97859;-81
2023/05/15 05:29:39;;;;;;;5.57;5.03;;;;;;;14.41;52.93;100941.78;5026014;28;99098;-82
2023/05/15 05:32:06;;;;;;;6.43;5.83;;;;;;;14.45;52.77;100931.19;5023353;28;99055;-81
2023/05/15 05:34:31;;;;;;;5.97;4.97;;;;;;;14.52;52.63;100932.66;5043129;27;96820;-81
2023/05/15 05:36:56;;;;;;;6.00;5.53;;;;;;;14.59;52.86;100946.69;5028611;27;97213;-81
2023/05/15 05:39:22;;;;;;;5.77;5.27;;;;;;;14.64;52.86;100934.84;5026644;27;97802;-81
2023/05/15 05:41:47;;;;;;;6.00;5.40;;;;;;;14.73;52.77;100942.84;5026982;27;97658;-81
2023/05/15 05:44:12;;;;;;;4.97;4.50;;;;;;;14.81;52.73;100931.94;5027315;27;97426;-83
2023/05/15 05:46:38;;;;;;;6.63;5.17;;;;;;;14.88;52.74;100934.94;5025378;28;97299;-81
2023/05/15 05:49:03;;;;;;;5.47;4.97;;;;;;;14.91;52.84;100920.06;5026612;28;99736;-83
2023/05/15 05:51:30;;;;;;;6.27;5.33;;;;;;;15.05;52.86;100928.53;5027079;28;97613;-81
2023/05/15 05:53:55;;;;;;;5.80;5.20;;;;;;;15.13;52.85;100937.75;5026377;28;97178;-81
2023/05/15 05:56:21;;;;;;;6.00;5.40;;;;;;;15.21;52.99;100944.25;5020346;27;97448;-81
2023/05/15 05:58:47;;;;;;;5.33;4.90;;;;;;;15.29;52.91;100934.09;5024181;28;99414;-81
2023/05/15 06:01:12;;;;;;;8.17;5.40;;;;;;;15.35;52.90;100930.00;5026690;27;97787;-81
2023/05/15 06:03:38;;;;;;;4.70;4.30;;;;;;;15.44;52.71;100928.94;5025769;28;97374;-81
2023/05/15 06:06:04;;;;;;;5.03;4.73;;;;;;;15.51;52.47;100942.22;5026429;27;96905;-82
2023/05/15 06:08:30;;;;;;;5.73;4.30;;;;;;;15.58;52.57;100934.09;5026133;28;98068;-81
2023/05/15 06:10:55;;;;;;;7.83;4.60;;;;;;;15.64;52.21;100940.31;5025666;27;97429;-80
2023/05/15 06:13:21;;;;;;;4.93;4.57;;;;;;;15.71;52.38;100930.66;5026685;27;96933;-81
2023/05/15 06:15:46;;;;;;;5.20;4.70;;;;;;;15.80;52.46;100930.31;5028187;27;97132;-80
2023/05/15 06:18:12;;;;;;;4.90;4.50;;;;;;;15.89;52.50;100924.41;5028113;28;97699;-81
2023/05/15 06:20:37;;;;;;;5.53;4.50;;;;;;;15.94;52.26;100925.63;5024207;28;100515;-81
2023/05/15 06:23:03;;;;;;;5.70;5.20;;;;;;;16.03;52.22;100933.59;5027190;28;97270;-81
2023/05/15 06:25:29;;;;;;;6.50;4.90;;;;;;;16.11;52.33;100942.81;5027212;27;97021;-81
2023/05/15 06:27:54;;;;;;;5.47;5.00;;;;;;;16.18;52.50;100922.81;5024393;27;97847;-81
2023/05/15 06:30:20;;;;;;;5.00;4.50;;;;;;;16.25;52.42;100939.59;5024650;27;97492;-81
2023/05/15 06:32:45;;;;;;;5.63;5.13;;;;;;;16.29;52.57;100931.72;5024081;28;97443;-81
2023/05/15 06:35:10;;;;;;;5.90;5.50;;;;;;;16.39;52.71;100926.53;5025006;28;97544;-81
2023/05/15 06:37:36;;;;;;;4.73;4.43;;;;;;;16.45;52.77;100933.53;5024875;28;97951;-81
2023/05/15 06:40:03;;;;;;;6.10;5.60;;;;;;;16.55;52.62;100922.06;5039486;27;100442;-81
2023/05/15 06:42:28;;;;;;;5.67;5.17;;;;;;;16.61;52.78;100923.50;5023437;27;97730;-81
2023/05/15 06:44:54;;;;;;;6.23;5.73;;;;;;;16.71;52.69;100927.38;5027510;27;97388;-81
2023/05/15 06:47:19;;;;;;;6.10;5.60;;;;;;;16.80;52.78;100924.19;5021311;28;99147;-81
2023/05/15 06:49:44;;;;;;;6.20;5.50;;;;;;;16.84;52.77;100923.91;5022090;28;99385;-80
2023/05/15 06:52:10;;;;;;;5.67;5.27;;;;;;;16.84;52.79;100960.75;5024850;27;97471;-80
2023/05/15 06:54:35;;;;;;;5.57;5.17;;;;;;;16.94;52.89;100914.63;5026193;28;97076;-82
2023/05/15 06:57:01;;;;;;;5.67;5.17;;;;;;;16.98;53.13;100911.53;5020744;27;100810;-81
2023/05/15 06:59:26;;;;;;;6.00;5.40;;;;;;;17.11;52.88;100908.78;5022908;28;98790;-82
2023/05/15 07:01:51;;;;;;;6.47;5.73;;;;;;;17.16;52.87;100908.72;5024896;28;97310;-80
2023/05/15 07:04:17;;;;;;;5.60;5.10;;;;;;;17.23;52.84;100921.22;5025020;28;97024;-80
2023/05/15 07:06:42;;;;;;;5.90;5.40;;;;;;;17.33;52.93;100918.78;5025616;27;97373;-81
2023/05/15 07:09:08;;;;;;;6.30;5.70;;;;;;;17.41;52.87;100916.88;5040839;27;100027;-82
2023/05/15 07:11:36;;;;;;;5.50;5.10;;;;;;;17.47;52.74;100915.50;5040876;27;97626;-81
2023/05/15 07:14:02;;;;;;;6.53;5.93;;;;;;;17.54;52.89;100914.88;5025016;28;97012;-81
2023/05/15 07:16:27;;;;;;;5.67;5.17;;;;;;;17.63;52.95;100908.88;5024606;28;97461;-80
2023/05/15 07:18:53;;;;;;;4.60;4.30;;;;;;;17.72;52.82;100904.91;5023412;27;99706;-80
2023/05/15 07:21:18;;;;;;;6.07;5.57;;;;;;;17.80;52.82;100905.78;5024683;27;101463;-81
2023/05/15 07:23:44;;;;;;;7.83;5.20;;;;;;;17.90;52.80;100906.84;5024154;28;101066;-81
2023/05/15 07:26:09;;;;;;;5.73;5.13;;;;;;;18.02;52.67;100912.94;5024738;28;97561;-79
2023/05/15 07:28:34;;;;;;;5.50;5.00;;;;;;;18.07;52.55;100920.41;5023609;28;100557;-81
2023/05/15 07:31:00;;;;;;;5.60;5.20;;;;;;;18.14;52.56;100914.19;5023955;28;97224;-82
2023/05/15 07:33:26;;;;;;;5.77;4.97;;;;;;;18.16;52.54;100890.09;5029196;28;97211;-81
2023/05/15 07:35:51;;;;;;;6.00;5.50;;;;;;;18.30;52.56;100905.47;5029040;28;97696;-81
2023/05/15 07:38:17;;;;;;;6.33;5.83;;;;;;;18.38;52.51;100902.78;5028141;28;96774;-81
2023/05/15 07:40:42;;;;;;;5.77;5.33;;;;;;;18.44;52.38;100909.75;5026777;27;96910;-80
2023/05/15 07:43:08;;;;;;;6.20;5.60;;;;;;;18.48;52.26;100899.00;5026496;27;97080;-81
2023/05/15 07:45:33;;;;;;;6.03;5.53;;;;;;;18.54;52.31;100902.41;5026333;28;99366;-81
2023/05/15 07:48:12;;;;;;;5.37;4.93;;;;;;;18.59;52.52;100884.06;5026829;28;100574;-81
2023/05/15 07:50:37;;;;;;;7.03;5.17;;;;;;;18.65;52.18;100902.16;5029092;28;97248;-80
2023/05/15 07:53:02;;;;;;;10.00;5.03;;;;;;;18.75;52.23;100893.31;5027892;28;97464;-81
2023/05/15 07:55:29;;;;;;;7.27;5.03;;;;;;;18.86;52.23;100882.66;5027927;27;97724;-80
2023/05/15 07:57:54;;;;;;;5.30;4.83;;;;;;;18.96;52.13;100908.75;5028613;28;99206;-80
2023/05/15 08:00:20;;;;;;;5.80;5.20;;;;;;;19.04;51.85;100898.44;5030003;27;97161;-80
2023/05/15 08:02:47;;;;;;;5.63;5.00;;;;;;;19.13;51.96;100895.13;5024608;27;99553;-80
2023/05/15 08:05:12;;;;;;;5.50;5.10;;;;;;;19.30;51.94;100887.09;5027499;27;100682;-80
2023/05/15 08:07:38;;;;;;;6.00;4.97;;;;;;;19.40;51.73;100888.13;5028947;28;97274;-80
2023/05/15 08:10:04;;;;;;;5.20;4.70;;;;;;;19.50;51.70;100882.03;5027894;27;97617;-81
2023/05/15 08:12:30;;;;;;;5.43;4.93;;;;;;;19.56;51.56;100880.59;5027203;28;97343;-79
2023/05/15 08:14:55;;;;;;;5.20;4.70;;;;;;;19.64;51.29;100884.16;5030350;28;97884;-79
2023/05/15 08:17:22;;;;;;;3.80;3.50;;;;;;;19.71;51.21;100880.66;5029919;28;97441;-81
2023/05/15 08:19:47;;;;;;;5.10;4.70;;;;;;;19.81;50.99;100872.53;5030371;28;97272;-80
2023/05/15 08:22:13;;;;;;;5.50;5.00;;;;;;;19.90;51.17;100869.97;5029685;28;96950;-79
2023/05/15 08:24:39;;;;;;;5.27;4.77;;;;;;;20.03;50.96;100871.88;5027940;27;100375;-80
2023/05/15 08:27:06;;;;;;;5.33;4.83;;;;;;;20.16;50.93;100868.94;5030470;28;97634;-80
2023/05/15 08:29:32;;;;;;;5.13;4.67;;;;;;;20.25;50.77;100870.50;5027958;27;97651;-80
2023/05/15 08:31:58;;;;;;;5.93;4.53;;;;;;;20.31;50.63;100880.22;5028904;28;97440;-80
2023/05/15 08:34:23;;;;;;;5.90;4.87;;;;;;;20.47;50.46;100861.41;5027781;28;98056;-80
2023/05/15 08:36:49;;;;;;;5.03;4.63;;;;;;;20.58;50.45;100863.84;5027268;28;100065;-81
2023/05/15 08:39:14;;;;;;;4.40;4.00;;;;;;;20.73;50.16;100864.59;5028367;27;97423;-80
2023/05/15 08:41:49;;;;;;;6.90;4.83;;;;;;;20.88;49.95;100859.03;5029025;28;97371;-81
2023/05/15 08:44:14;;;;;;;4.77;4.37;;;;;;;20.97;49.60;100849.31;5042544;27;100308;-79
2023/05/15 08:46:40;;;;;;;5.93;4.50;;;;;;;21.05;49.38;100841.72;5025321;28;98135;-80
2023/05/15 08:49:31;;;;;;;3.90;3.60;;;;;;;21.13;48.31;100855.69;5028556;28;97059;-80
2023/05/15 08:51:57;;;;;;;3.57;3.27;;;;;;;21.28;48.88;100852.84;5041923;27;96936;-81
2023/05/15 08:54:24;;;;;;;3.90;3.20;;;;;;;21.43;48.17;100850.78;5025589;27;98902;-81
2023/05/15 08:56:49;;;;;;;6.00;3.00;;;;;;;21.48;47.94;100835.09;5025522;28;99833;-80
2023/05/15 08:59:15;;;;;;;3.60;3.30;;;;;;;21.50;47.71;100840.88;5025714;27;97575;-80
2023/05/15 09:01:40;;;;;;;3.83;3.30;;;;;;;21.53;47.54;100845.34;5028818;28;97520;-81
2023/05/15 09:04:06;;;;;;;3.10;2.90;;;;;;;21.49;47.65;100840.13;5027744;28;98071;-82
2023/05/15 09:06:32;;;;;;;3.80;3.13;;;;;;;21.59;47.59;100846.63;5025918;27;99501;-81
2023/05/15 09:09:00;;;;;;;3.53;3.23;;;;;;;21.69;47.36;100883.19;5028651;27;96803;-81
2023/05/15 09:11:26;;;;;;;3.70;3.40;;;;;;;21.78;47.28;100837.03;5027549;28;97591;-82
2023/05/15 09:13:52;;;;;;;4.10;3.60;;;;;;;21.87;46.80;100842.06;5027429;28;97569;-82
2023/05/15 09:16:19;;;;;;;5.00;3.87;;;;;;;21.97;46.60;100829.72;5027178;28;97738;-80
2023/05/15 09:18:47;;;;;;;4.10;3.80;;;;;;;22.13;46.31;100831.09;5016217;27;97346;-82
2023/05/15 09:21:26;;;;;;;3.33;3.03;;;;;;;22.34;44.06;100834.34;5028760;27;97410;-82
2023/05/15 09:23:52;;;;;;;3.50;3.20;;;;;;;22.48;45.36;100826.41;5025730;27;97031;-82
2023/05/15 09:26:17;;;;;;;4.23;3.00;;;;;;;22.67;44.98;100831.53;5025323;27;97385;-82
2023/05/15 09:28:43;;;;;;;4.07;2.70;;;;;;;22.85;44.81;100821.84;5026899;27;97136;-82
2023/05/15 09:31:09;;;;;;;4.13;3.23;;;;;;;22.95;44.50;100811.47;5027384;28;97493;-83
2023/05/15 09:33:38;;;;;;;3.20;2.90;;;;;;;23.15;44.24;100813.16;5025334;28;97695;-82
2023/05/15 09:36:06;;;;;;;2.77;2.57;;;;;;;23.27;44.00;100819.00;5026111;28;98867;-82
2023/05/15 09:38:33;;;;;;;3.60;2.80;;;;;;;23.39;43.37;100808.81;5026974;27;97028;-82
2023/05/15 09:41:04;;;;;;;4.27;3.03;;;;;;;23.51;41.96;100810.53;5027300;27;97042;-81
2023/05/15 09:43:36;;;;;;;3.07;2.70;;;;;;;23.71;41.35;100811.41;5025288;27;97680;-81
2023/05/15 09:46:01;;;;;;;3.20;2.30;;;;;;;23.84;41.73;100820.25;5039914;27;99012;-82
2023/05/15 09:48:27;;;;;;;3.03;2.73;;;;;;;23.99;41.69;100812.91;5024277;28;100544;-82
2023/05/15 09:50:53;;;;;;;2.60;2.40;;;;;;;24.12;41.31;100813.31;5026505;27;97425;-81
2023/05/15 09:53:20;;;;;;;3.00;2.70;;;;;;;24.24;40.69;100813.53;5026270;27;97644;-79
2023/05/15 09:55:46;;;;;;;5.27;2.67;;;;;;;24.37;40.81;100804.72;5025408;27;97832;-81
2023/05/15 09:58:14;;;;;;;2.47;2.27;;;;;;;24.52;40.26;100812.91;5027094;27;97842;-81
2023/05/15 10:00:41;;;;;;;2.97;2.30;;;;;;;24.60;39.41;100802.28;5025211;28;97000;-81
2023/05/15 10:03:07;;;;;;;4.30;2.33;;;;;;;24.63;39.56;100806.00;5027454;27;98946;-82
2023/05/15 10:05:33;;;;;;;2.40;2.20;;;;;;;24.68;39.45;100786.03;5022931;27;99376;-80
2023/05/15 10:07:59;;;;;;;3.60;2.33;;;;;;;24.76;39.00;100800.00;5028478;27;97115;-81
2023/05/15 10:10:26;;;;;;;2.67;2.47;;;;;;;24.65;38.77;100792.81;5026831;27;97584;-82
2023/05/15 10:12:53;;;;;;;2.53;2.33;;;;;;;24.60;38.67;100791.03;5025658;28;97673;-82
2023/05/15 10:15:20;;;;;;;3.63;2.43;;;;;;;24.62;38.18;100791.19;5026206;28;97043;-82
2023/05/15 10:17:51;;;;;;;3.13;2.77;;;;;;;24.68;38.17;100786.03;5025541;28;97664;-82
2023/05/15 10:20:22;;;;;;;4.53;2.70;;;;;;;24.84;37.57;100794.97;5023174;27;97897;-82
2023/05/15 10:22:49;;;;;;;2.27;2.07;;;;;;;24.96;37.83;100798.69;5022971;27;99263;-82
2023/05/15 10:25:20;;;;;;;2.50;2.30;;;;;;;24.98;37.02;100793.22;5023486;28;99220;-82
2023/05/15 10:27:48;;;;;;;2.80;2.43;;;;;;;24.84;36.98;100809.03;5026036;28;96829;-82
2023/05/15 10:30:15;;;;;;;3.20;2.90;;;;;;;24.94;36.30;100788.03;5026374;28;97005;-83
2023/05/15 10:32:42;;;;;;;2.80;2.60;;;;;;;24.86;35.91;100804.31;5040008;27;99999;-83
2023/05/15 10:35:11;;;;;;;2.77;2.50;;;;;;;24.83;36.26;100779.41;5024995;28;100589;-83
2023/05/15 10:37:40;;;;;;;2.27;2.17;;;;;;;24.80;35.13;100778.53;5023149;28;96868;-82
2023/05/15 10:40:09;;;;;;;2.23;2.03;;;;;;;24.91;35.41;100777.19;5026755;27;97940;-83
2023/05/15 10:42:36;;;;;;;2.70;2.50;;;;;;;25.00;35.61;100777.22;5023561;28;100445;-82
2023/05/15 10:45:04;;;;;;;3.10;1.90;;;;;;;25.03;35.68;100772.50;5028044;27;97803;-82
2023/05/15 10:47:30;;;;;;;2.57;2.37;;;;;;;25.16;35.92;100777.69;5027132;27;97183;-82
2023/05/15 10:49:56;;;;;;;2.83;2.60;;;;;;;25.05;35.12;100762.09;5024114;27;99072;-81
2023/05/15 10:52:23;;;;;;;3.80;2.50;;;;;;;24.94;35.26;100762.72;5022169;28;99478;-83
2023/05/15 10:54:49;;;;;;;6.00;2.70;;;;;;;24.66;35.06;100783.03;5023890;28;97352;-82
2023/05/15 10:57:14;;;;;;;2.37;2.17;;;;;;;24.52;35.64;100756.66;5025351;27;97081;-82
2023/05/15 10:59:43;;;;;;;2.93;2.17;;;;;;;24.47;35.90;100766.84;5022560;28;96702;-81
2023/05/15 11:02:18;;;;;;;2.33;2.13;;;;;;;24.50;35.60;100759.31;5024472;28;97318;-83
2023/05/15 11:04:43;;;;;;;2.73;2.40;;;;;;;24.50;35.90;100765.69;5024279;28;97656;-82
2023/05/15 11:07:14;;;;;;;3.90;2.07;;;;;;;24.36;35.43;100749.78;5028242;27;97319;-83
2023/05/15 11:09:39;;;;;;;3.33;2.93;;;;;;;24.37;35.51;100757.66;5027717;28;97295;-82
2023/05/15 11:12:10;;;;;;;2.77;2.57;;;;;;;24.45;35.11;100788.47;5028752;27;97652;-84
2023/05/15 11:14:35;;;;;;;2.70;2.43;;;;;;;24.51;35.39;100755.16;5025359;27;98705;-81
2023/05/15 11:17:03;;;;;;;2.73;2.50;;;;;;;24.68;35.67;100755.06;5028722;27;97416;-82
2023/05/15 11:19:30;;;;;;;3.47;2.20;;;;;;;24.90;35.74;100756.75;5028366;27;96851;-81
2023/05/15 11:22:00;;;;;;;2.40;2.20;;;;;;;24.95;35.17;100752.16;5025536;28;100657;-80